Time;durP1;ratioP1;P1;durP2;ratioP2;P2;SDS_P1;SDS_P2;PMS_P1;PMS_P2;Temp;Humidity;BMP_temperature;BMP_pressure;BME280_temperature;BME280_humidity;BME280_pressure;Samples;Min_cycle;Max_cycle;Signal;HPM_P1;HPM_P2
2021/03/14 00:08:39;;;;;;;4.85;0.60;;;4.10;99.90;;;;;;6713593;88;20166;-81
2021/03/14 00:18:42;;;;;;;2.55;0.75;;;4.20;99.90;;;;;;6714116;88;20267;-81
2021/03/14 00:28:43;;;;;;;3.65;0.90;;;4.10;99.90;;;;;;6697148;88;20192;-82
2021/03/14 00:38:44;;;;;;;3.85;0.90;;;4.30;99.90;;;;;;6682209;89;20168;-80
2021/03/14 00:48:44;;;;;;;2.70;0.80;;;4.20;99.90;;;;;;6682841;89;20309;-81
2021/03/14 00:58:45;;;;;;;1.67;0.68;;;4.20;99.90;;;;;;6695733;89;21303;-79
2021/03/14 01:08:46;;;;;;;6.20;1.40;;;4.30;99.90;;;;;;6727472;88;20185;-79
2021/03/14 01:18:46;;;;;;;6.17;1.20;;;4.40;99.90;;;;;;6735075;88;20162;-80
2021/03/14 01:28:48;;;;;;;3.77;1.00;;;4.60;99.90;;;;;;6734920;88;20548;-78
2021/03/14 01:38:48;;;;;;;7.15;0.90;;;4.70;99.90;;;;;;6715592;88;20474;-78
2021/03/14 01:48:49;;;;;;;3.30;0.77;;;4.80;99.90;;;;;;6715425;88;20244;-78
2021/03/14 01:58:50;;;;;;;4.12;0.80;;;4.90;99.90;;;;;;6715412;88;20353;-78
2021/03/14 02:08:51;;;;;;;4.75;0.90;;;4.70;99.90;;;;;;6730664;88;20153;-81
2021/03/14 02:18:55;;;;;;;2.45;0.70;;;4.50;99.90;;;;;;6735010;88;20182;-79
2021/03/14 02:28:56;;;;;;;3.20;1.05;;;4.40;99.90;;;;;;6734351;88;20222;-79
2021/03/14 02:38:58;;;;;;;5.18;1.40;;;4.50;99.90;;;;;;6734093;88;20174;-80
2021/03/14 02:49:00;;;;;;;5.28;1.67;;;4.60;99.90;;;;;;6714447;88;21190;-79
2021/03/14 02:59:03;;;;;;;6.32;2.20;;;4.60;99.90;;;;;;6714436;88;20201;-79
2021/03/14 03:09:04;;;;;;;8.25;2.97;;;4.60;99.90;;;;;;6697378;88;20186;-79
2021/03/14 03:19:05;;;;;;;6.50;3.53;;;4.30;99.90;;;;;;6697279;88;20168;-78
2021/03/14 03:29:05;;;;;;;6.22;3.50;;;4.20;99.90;;;;;;6680250;89;20168;-78
2021/03/14 03:39:08;;;;;;;7.47;4.10;;;4.10;99.90;;;;;;6680433;89;20164;-78
2021/03/14 03:49:11;;;;;;;7.43;3.22;;;4.10;99.90;;;;;;6676326;88;20273;-78
2021/03/14 03:59:13;;;;;;;11.32;4.37;;;4.20;99.90;;;;;;6693640;88;20181;-77
2021/03/14 04:09:14;;;;;;;9.45;3.83;;;4.10;99.90;;;;;;6696633;88;20151;-78
2021/03/14 04:19:20;;;;;;;10.38;3.80;;;4.20;99.90;;;;;;6725593;88;20162;-78
2021/03/14 04:29:22;;;;;;;9.68;3.60;;;4.10;99.90;;;;;;6732734;88;20219;-77
2021/03/14 04:39:24;;;;;;;6.95;2.95;;;4.10;99.90;;;;;;6716779;88;22434;-79
2021/03/14 04:49:25;;;;;;;9.27;3.40;;;4.20;99.90;;;;;;6732672;88;20161;-78
2021/03/14 04:59:26;;;;;;;9.65;3.83;;;4.20;99.90;;;;;;6732485;88;20155;-78
2021/03/14 05:09:27;;;;;;;9.43;3.50;;;4.20;99.90;;;;;;6696266;89;20470;-79
2021/03/14 05:19:31;;;;;;;10.85;4.03;;;4.20;99.90;;;;;;6697271;88;20208;-78
2021/03/14 05:29:32;;;;;;;12.35;4.15;;;4.10;99.90;;;;;;6665108;89;20181;-78
2021/03/14 05:39:33;;;;;;;11.70;4.35;;;4.10;99.90;;;;;;6678310;89;20169;-79
2021/03/14 05:49:33;;;;;;;8.35;3.83;;;4.10;99.90;;;;;;6681547;89;20172;-78
2021/03/14 05:59:34;;;;;;;8.10;3.75;;;4.00;99.90;;;;;;6723403;88;20201;-78
2021/03/14 06:09:35;;;;;;;9.05;3.67;;;4.00;99.90;;;;;;6740245;88;20195;-79
2021/03/14 06:19:35;;;;;;;9.68;3.33;;;4.10;99.90;;;;;;6740847;88;20155;-79
2021/03/14 06:29:39;;;;;;;11.57;3.40;;;4.40;99.90;;;;;;6742775;88;20188;-78
2021/03/14 06:39:45;;;;;;;7.30;3.58;;;4.50;99.90;;;;;;6751399;88;20178;-79
2021/03/14 06:49:46;;;;;;;13.30;3.40;;;4.60;99.90;;;;;;6739096;88;20154;-80
2021/03/14 06:59:54;;;;;;;6.78;3.25;;;4.70;99.90;;;;;;6734207;88;20228;-78
2021/03/14 07:10:05;;;;;;;7.22;3.15;;;4.70;99.90;;;;;;6733711;88;21314;-77
2021/03/14 07:20:12;;;;;;;10.57;3.25;;;4.90;99.90;;;;;;6697330;89;20196;-78
2021/03/14 07:30:14;;;;;;;7.68;3.60;;;5.10;99.90;;;;;;6697226;89;20172;-79
2021/03/14 07:40:19;;;;;;;7.50;2.40;;;5.30;99.90;;;;;;6693767;89;20230;-79
2021/03/14 07:50:28;;;;;;;6.20;2.20;;;5.60;99.90;;;;;;6699842;88;20886;-80
2021/03/14 08:00:34;;;;;;;6.07;2.30;;;5.80;99.90;;;;;;6668793;89;20408;-79
2021/03/14 08:20:45;;;;;;;7.32;1.83;;;6.60;99.90;;;;;;6692813;88;20276;-78
2021/03/14 08:30:47;;;;;;;5.20;1.67;;;6.50;99.90;;;;;;6674391;89;20203;-77
2021/03/14 08:40:48;;;;;;;5.82;1.65;;;6.60;99.90;;;;;;6684888;88;20249;-77
2021/03/14 08:50:48;;;;;;;7.07;1.92;;;6.90;99.90;;;;;;6690960;89;20217;-77
2021/03/14 09:01:08;;;;;;;8.02;2.05;;;7.00;99.90;;;;;;6690707;88;20190;-78
2021/03/14 09:11:09;;;;;;;9.40;1.92;;;6.90;99.90;;;;;;6678714;88;20731;-78
2021/03/14 09:21:09;;;;;;;5.47;1.63;;;6.80;99.90;;;;;;6692341;88;20194;-77
2021/03/14 09:31:13;;;;;;;5.10;1.50;;;6.80;99.90;;;;;;6705321;88;20533;-78
2021/03/14 09:41:14;;;;;;;5.18;1.60;;;6.80;99.90;;;;;;6697916;88;20294;-79
2021/03/14 09:51:17;;;;;;;4.87;1.50;;;6.60;99.90;;;;;;6700054;88;20789;-78
2021/03/14 10:01:18;;;;;;;7.07;1.70;;;6.80;99.90;;;;;;6697327;88;20215;-78
2021/03/14 10:11:19;;;;;;;6.70;1.50;;;7.00;99.90;;;;;;6707067;88;20175;-79
2021/03/14 10:21:26;;;;;;;3.78;1.17;;;6.60;99.90;;;;;;6703985;88;20241;-78
2021/03/14 10:31:33;;;;;;;4.07;0.88;;;6.30;99.90;;;;;;6695477;88;20319;-78
2021/03/14 10:41:46;;;;;;;2.72;0.70;;;6.50;99.90;;;;;;6692026;88;20318;-78
2021/03/14 10:51:51;;;;;;;1.77;0.62;;;6.30;99.90;;;;;;6691089;88;20203;-78
2021/03/14 11:02:00;;;;;;;2.27;0.60;;;6.30;99.90;;;;;;6694078;88;20191;-78
2021/03/14 11:12:03;;;;;;;1.00;0.40;;;6.80;99.90;;;;;;6691186;88;20256;-77
2021/03/14 11:22:05;;;;;;;1.12;0.60;;;6.90;99.90;;;;;;6695669;88;20175;-79
2021/03/14 11:32:11;;;;;;;1.58;0.75;;;6.80;99.90;;;;;;6704396;88;20182;-79
2021/03/14 11:42:12;;;;;;;2.30;1.20;;;6.50;99.90;;;;;;6702317;88;20167;-78
2021/03/14 11:52:12;;;;;;;3.67;1.67;;;6.40;99.90;;;;;;6691461;88;20274;-78
2021/03/14 12:02:13;;;;;;;3.80;1.73;;;6.40;99.90;;;;;;6690494;88;20203;-76
2021/03/14 12:12:13;;;;;;;3.10;1.80;;;6.70;99.90;;;;;;6688677;88;20190;-77
2021/03/14 12:22:14;;;;;;;3.45;2.00;;;8.00;99.90;;;;;;6685701;88;20190;-78
2021/03/14 12:32:15;;;;;;;6.50;2.80;;;7.90;99.90;;;;;;6685999;88;20609;-76
2021/03/14 12:42:17;;;;;;;6.30;3.72;;;7.20;99.90;;;;;;6688900;88;20234;-75
2021/03/14 12:52:18;;;;;;;5.45;3.80;;;7.10;99.90;;;;;;6687975;88;20290;-76
2021/03/14 13:02:18;;;;;;;8.32;3.67;;;7.40;99.90;;;;;;6685619;88;20204;-78
2021/03/14 13:12:19;;;;;;;5.57;3.12;;;7.90;99.90;;;;;;6688199;88;20281;-76
2021/03/14 13:22:20;;;;;;;5.30;3.12;;;7.80;99.90;;;;;;6681501;88;20403;-77
2021/03/14 13:32:21;;;;;;;3.85;2.60;;;8.20;99.90;;;;;;6680160;88;20261;-77
2021/03/14 13:42:23;;;;;;;4.53;3.10;;;8.60;99.90;;;;;;6686028;88;20232;-76
2021/03/14 13:52:25;;;;;;;5.28;2.75;;;8.80;99.90;;;;;;6686505;88;20391;-77
2021/03/14 14:02:25;;;;;;;4.75;2.47;;;7.90;99.90;;;;;;6688782;88;20182;-76
2021/03/14 14:12:26;;;;;;;2.58;1.65;;;8.00;99.90;;;;;;6688351;88;20211;-77
2021/03/14 14:22:27;;;;;;;4.25;1.80;;;9.60;99.90;;;;;;6680757;88;20204;-76
2021/03/14 14:32:29;;;;;;;4.60;1.98;;;10.10;99.90;;;;;;6688896;88;20187;-76
2021/03/14 14:42:29;;;;;;;3.53;1.60;;;9.00;99.90;;;;;;6688049;88;20214;-75
2021/03/14 14:52:30;;;;;;;4.62;1.48;;;8.40;99.90;;;;;;6687362;88;20191;-76
2021/03/14 15:02:31;;;;;;;5.10;1.50;;;8.80;99.90;;;;;;6686792;88;20281;-77
2021/03/14 15:12:32;;;;;;;5.25;1.80;;;8.30;99.90;;;;;;6687882;88;20212;-74
2021/03/14 15:22:33;;;;;;;4.35;1.60;;;8.10;99.90;;;;;;6686200;88;20250;-77
2021/03/14 15:32:34;;;;;;;4.47;1.10;;;8.20;99.90;;;;;;6685663;88;20326;-77
2021/03/14 15:42:34;;;;;;;4.18;1.10;;;8.90;99.90;;;;;;6687932;88;20190;-77
2021/03/14 15:52:35;;;;;;;5.03;0.90;;;8.80;99.90;;;;;;6688549;88;21641;-79
2021/03/14 16:02:36;;;;;;;6.95;1.40;;;8.10;99.90;;;;;;6691391;88;20210;-77
2021/03/14 16:12:36;;;;;;;5.53;1.90;;;8.30;99.90;;;;;;6687163;88;20336;-76
2021/03/14 16:22:38;;;;;;;4.87;1.67;;;8.20;99.90;;;;;;6692327;88;20194;-75
2021/03/14 16:32:38;;;;;;;7.10;1.27;;;8.40;99.90;;;;;;6691751;88;20234;-78
2021/03/14 16:42:39;;;;;;;4.60;1.00;;;8.30;99.90;;;;;;6685863;88;20203;-76
2021/03/14 16:52:40;;;;;;;3.65;1.10;;;7.60;99.90;;;;;;6684857;88;20532;-77
2021/03/14 17:02:41;;;;;;;5.28;1.40;;;7.30;99.90;;;;;;6686378;88;20642;-76
2021/03/14 17:12:41;;;;;;;4.30;1.37;;;7.00;99.90;;;;;;6690968;88;20677;-78
2021/03/14 17:22:42;;;;;;;5.03;1.50;;;6.80;99.90;;;;;;6694263;88;20290;-78
2021/03/14 17:32:43;;;;;;;6.75;1.70;;;6.50;99.90;;;;;;6689606;88;20174;-78
2021/03/14 17:42:43;;;;;;;8.25;1.80;;;6.60;99.90;;;;;;6694936;88;20196;-75
2021/03/14 17:52:44;;;;;;;7.03;1.55;;;6.50;99.90;;;;;;6691557;88;20912;-78
2021/03/14 18:02:45;;;;;;;9.27;1.80;;;6.30;99.90;;;;;;6691289;88;20215;-79
2021/03/14 18:12:45;;;;;;;6.85;1.90;;;6.20;99.90;;;;;;6688960;88;20538;-78
2021/03/14 18:22:46;;;;;;;7.20;1.92;;;6.30;99.90;;;;;;6687851;88;20190;-78
2021/03/14 18:32:47;;;;;;;15.20;2.77;;;6.20;99.90;;;;;;6687668;88;20662;-78
2021/03/14 18:42:48;;;;;;;7.45;2.15;;;6.30;99.90;;;;;;6688003;88;21111;-81
2021/03/14 18:52:54;;;;;;;10.10;2.45;;;6.30;99.90;;;;;;6691950;88;20270;-79
2021/03/14 19:02:54;;;;;;;5.57;2.28;;;6.20;99.90;;;;;;6687022;88;20213;-79
2021/03/14 19:12:55;;;;;;;6.75;1.87;;;6.10;99.90;;;;;;6690465;88;20790;-76
2021/03/14 19:22:55;;;;;;;9.52;2.55;;;6.20;99.90;;;;;;6679522;88;20509;-78
2021/03/14 19:32:56;;;;;;;6.63;2.00;;;6.10;99.90;;;;;;6687442;88;20631;-78
2021/03/14 19:42:57;;;;;;;7.22;2.33;;;6.10;99.90;;;;;;6687039;88;20546;-76
2021/03/14 19:52:57;;;;;;;4.80;2.00;;;6.00;99.90;;;;;;6676260;88;20192;-78
2021/03/14 20:02:58;;;;;;;6.40;1.60;;;5.90;99.90;;;;;;6672626;89;20331;-78
2021/03/14 20:12:58;;;;;;;5.97;1.83;;;5.90;99.90;;;;;;6672794;89;20332;-78
2021/03/14 20:22:59;;;;;;;7.05;1.87;;;5.80;99.90;;;;;;6673771;89;20217;-78
2021/03/14 20:33:00;;;;;;;5.82;1.77;;;5.70;99.90;;;;;;6671248;89;20219;-80
2021/03/14 20:43:02;;;;;;;7.40;1.90;;;5.80;99.90;;;;;;6676034;89;20200;-78
2021/03/14 20:53:02;;;;;;;9.82;3.10;;;5.40;99.90;;;;;;6711110;77;20186;-75
2021/03/14 21:03:03;;;;;;;5.43;1.98;;;5.00;99.90;;;;;;6717701;88;20212;-76
2021/03/14 21:13:04;;;;;;;8.65;2.60;;;5.00;99.90;;;;;;6708567;88;20537;-75
2021/03/14 21:23:04;;;;;;;6.72;2.75;;;4.90;99.90;;;;;;6705395;88;20703;-76
2021/03/14 21:33:05;;;;;;;6.87;2.90;;;4.90;99.90;;;;;;6712329;88;20196;-76
2021/03/14 21:43:05;;;;;;;7.87;2.80;;;5.00;99.90;;;;;;6717714;88;20253;-76
2021/03/14 21:53:06;;;;;;;6.35;2.85;;;4.80;99.90;;;;;;6733172;88;20285;-76
2021/03/14 22:03:07;;;;;;;5.00;3.15;;;4.70;99.90;;;;;;6731876;88;20215;-77
2021/03/14 22:13:07;;;;;;;6.62;3.22;;;4.50;99.90;;;;;;6733099;88;20219;-77
2021/03/14 22:23:08;;;;;;;6.30;3.33;;;4.80;99.90;;;;;;6737974;88;20190;-78
2021/03/14 22:33:10;;;;;;;8.13;3.40;;;4.70;99.90;;;;;;6734561;88;20273;-76
2021/03/14 22:43:10;;;;;;;9.20;4.05;;;4.70;99.90;;;;;;6739468;88;21275;-77
2021/03/14 22:53:11;;;;;;;10.52;4.72;;;4.50;99.90;;;;;;6734982;88;20232;-76
2021/03/14 23:03:14;;;;;;;8.88;4.22;;;4.40;99.90;;;;;;6734391;88;20202;-75
2021/03/14 23:13:15;;;;;;;13.25;4.37;;;4.40;99.90;;;;;;6730512;88;20271;-76
2021/03/14 23:23:19;;;;;;;10.52;3.60;;;4.40;99.90;;;;;;6710705;88;20231;-76
2021/03/14 23:33:27;;;;;;;8.40;3.10;;;4.40;99.90;;;;;;6709694;88;20217;-76
2021/03/14 23:43:28;;;;;;;9.10;3.00;;;4.60;99.90;;;;;;6705424;88;20197;-75
2021/03/14 23:53:28;;;;;;;7.65;3.05;;;4.70;99.90;;;;;;6708624;88;20247;-75
